Aérodrome :
LOGIN :

S'inscrire | Disclaimer

   EN    FR    IT 

 










Légende :    VFR   VFR Marginal   IFR   IFR Intensif   IFR Très Intensif
Visi : 
Plafond : 
>= 8 km
>= 3000ft
5 à 8 km
1000 à 3000 ft
1500m à 5 km
500 à 1000 ft
800 à 1500m
200 à 500 ft
< 800m
< 200 ft
Symboles :   Orages  Brouillard  Fortes neiges  Fortes précipitations  Vent > 20 kt
SIGMETs :   Divers  Orages  Givrage  Turbulence  Onde Orograph.  Cendres Volcan.






- Altitude de l'aérodrome : 25 ft
- Code IATA : QCY


EGXC - RAF Coningsby

DERNIER METAR :
  • 120550Z 24014KT 9999 FEW045 SCT130 04/02 Q0994 RMK BLU

METARs EXPIRÉS :
  • 120450Z 24014KT CAVOK 04/02 Q0994 RMK BLU
  • 120350Z 24013KT CAVOK 04/02 Q0994 RMK BLU

TAF TAF EGXC
Valide du 12 à 06h jusqu'au 13 à 00h UTC


120420Z 1206/1224 24015KT 9999 SCT030
BECMG 1207/1210 23018G28KT
TEMPO 1207/1213 -SHRA BKN022
PROB30
TEMPO 1208/1212 7000 SHRA SCT010 BKN018
BECMG 1211/1214 28012KT
PROB30
TEMPO 1213/1217 -SHRA SCT022



MET'MAP, la Météo Aéronautique d'un coup d'oeil ! - Copyright ORBIFLY Décembre 2007 - Disclaimer

ORBIFLY MET'MAP TEAM :

Programmation & Développement : Alexandra Zaïnal
Conception & Développement : Baudouin d'Aumeries
Co-Programmation & Développement : Marc-Olivier Méhu
Soutien technique & logistique : Manuel Goepfert

Contact : metmap@orbifly.com




SOURCES & CREDITS :

   NOAA